Merrimac, Massachusetts
Current Conditions -  °F | °C
As of 5:54 AM on Friday 24 Oct 2014 (Local Time) from KLWM Reporting Station
Overcast Overcast  
Wind Chill: 46°   Ceiling: 1000
Heat Index: 49°   Visibility: 10mi
Dew Point: 47°   Wind: 7mph
Humidity: 93%   Direction: 330°NNW
Pressure: 29.7"   Gusts: NA
Location:  42.83°N, 71°W
Report Text: KLWM 240954Z AUTO 33006KT 10SM BKN010 OVC014 09/08 A2970 RMK AO2 RAB00E09 SLP058 P0000 T00940083
Loading
Personal Weather Stations






























Interactive Weather Map
Tropical Storm Tracking
New forecast layout! Learn more

10-Day Weather Forecast

Advertisements
Track Severe Weather on mobile